createdAt,value
2023-03-20T00:00:33.088Z,101186.47
2023-03-20T00:02:59.766Z,101281.91
2023-03-20T00:05:28.327Z,101054.53
2023-03-20T00:07:55.354Z,101152.84
2023-03-20T00:10:25.765Z,101275.16
2023-03-20T00:12:54.816Z,101284.75
2023-03-20T00:15:35.505Z,101226.53
2023-03-20T00:18:02.118Z,101287.03
2023-03-20T00:20:29.960Z,101162.53
2023-03-20T00:22:57.946Z,101165.91
2023-03-20T00:25:25.817Z,101273.31
2023-03-20T00:27:52.378Z,101114.03
2023-03-20T00:30:20.921Z,101303.78
2023-03-20T00:32:48.611Z,101207.66
2023-03-20T00:35:22.513Z,101175.56
2023-03-20T00:37:50.225Z,101244.16
2023-03-20T00:40:19.593Z,101193.72
2023-03-20T00:42:57.772Z,101138.31
2023-03-20T00:45:24.426Z,101146.13
2023-03-20T00:47:51.894Z,101311.53
2023-03-20T00:50:24.648Z,101171.25
2023-03-20T00:52:51.226Z,101220.09
2023-03-20T00:55:23.426Z,101304.63
2023-03-20T00:57:59.269Z,101291.06
2023-03-20T01:00:39.891Z,101277.97
2023-03-20T01:03:15.588Z,101285.59
2023-03-20T01:05:42.117Z,101098.50
2023-03-20T01:08:26.900Z,101264.84
2023-03-20T01:10:57.579Z,101258.00
2023-03-20T01:13:27.421Z,101288.38
2023-03-20T01:15:56.538Z,101129.06
2023-03-20T01:18:24.673Z,101271.91
2023-03-20T01:20:53.003Z,101261.72
2023-03-20T01:23:22.866Z,101134.44
2023-03-20T01:25:50.229Z,101045.41
2023-03-20T01:28:23.144Z,101262.50
2023-03-20T01:30:52.575Z,101010.69
2023-03-20T01:33:26.394Z,101135.34
2023-03-20T01:35:52.891Z,101169.97
2023-03-20T01:38:22.951Z,101193.34
2023-03-20T01:41:12.294Z,101226.22
2023-03-20T01:43:38.694Z,101238.47
2023-03-20T01:46:21.235Z,101254.19
2023-03-20T01:48:50.653Z,101271.47
2023-03-20T01:51:22.669Z,101179.59
2023-03-20T01:54:14.629Z,101251.38
2023-03-20T01:56:48.160Z,101207.34
2023-03-20T01:59:21.446Z,101302.25
2023-03-20T02:01:47.889Z,101141.03
2023-03-20T02:04:16.683Z,101248.41
2023-03-20T02:06:45.173Z,101278.59
2023-03-20T02:09:12.330Z,101236.09
2023-03-20T02:11:41.868Z,101135.50
2023-03-20T02:14:08.487Z,101200.03
2023-03-20T02:16:34.912Z,101271.19
2023-03-20T02:19:02.060Z,101274.75
2023-03-20T02:21:37.579Z,101283.38
2023-03-20T02:24:23.858Z,101286.06
2023-03-20T02:27:02.367Z,101235.81
2023-03-20T02:30:16.653Z,101248.78
2023-03-20T02:33:11.334Z,101273.97
2023-03-20T02:36:09.003Z,101273.19
2023-03-20T02:38:58.769Z,101279.25
2023-03-20T02:41:37.996Z,101296.75
2023-03-20T02:44:11.548Z,101290.75
2023-03-20T02:46:52.690Z,101288.19
2023-03-20T02:49:47.091Z,101198.84
2023-03-20T02:52:17.491Z,101165.88
2023-03-20T02:55:19.447Z,101265.25
2023-03-20T02:57:55.363Z,101263.34
2023-03-20T03:00:28.468Z,101256.19
2023-03-20T03:03:06.711Z,101134.09
2023-03-20T03:05:56.279Z,101259.91
2023-03-20T03:08:28.565Z,101252.28
2023-03-20T03:11:01.248Z,101260.28
2023-03-20T03:13:30.582Z,101280.34
2023-03-20T03:16:04.207Z,101202.44
2023-03-20T03:18:34.491Z,101224.31
2023-03-20T03:21:03.675Z,101092.56
2023-03-20T03:23:40.410Z,101151.66
2023-03-20T03:26:08.062Z,101261.63
2023-03-20T03:28:45.783Z,101246.03
2023-03-20T03:31:15.296Z,101287.63
2023-03-20T03:33:46.925Z,101186.22
2023-03-20T03:36:41.307Z,101180.13
2023-03-20T03:39:44.657Z,101278.06
2023-03-20T03:42:27.728Z,101291.88
2023-03-20T03:45:31.725Z,101269.31
2023-03-20T03:48:13.914Z,101266.72
2023-03-20T03:50:48.325Z,101277.09
2023-03-20T03:53:19.705Z,101277.03
2023-03-20T03:55:52.586Z,101129.69
2023-03-20T03:58:25.712Z,101101.22
2023-03-20T04:00:55.936Z,101082.97
2023-03-20T04:03:28.399Z,101151.44
2023-03-20T04:05:58.060Z,101272.69
2023-03-20T04:08:24.528Z,101262.34
2023-03-20T04:10:51.170Z,101219.81
2023-03-20T04:13:17.627Z,101162.50
2023-03-20T04:15:44.438Z,101259.56
2023-03-20T04:18:16.712Z,101224.00
2023-03-20T04:20:44.809Z,101079.28
2023-03-20T04:23:11.358Z,101211.09
2023-03-20T04:25:38.124Z,101223.41
2023-03-20T04:28:05.152Z,101268.56
2023-03-20T04:30:31.641Z,101213.03
2023-03-20T04:32:58.117Z,101221.66
2023-03-20T04:35:24.793Z,101157.56
2023-03-20T04:37:51.187Z,101244.31
2023-03-20T04:40:17.766Z,101226.97
2023-03-20T04:42:44.257Z,101260.00
2023-03-20T04:45:10.776Z,101239.22
2023-03-20T04:47:39.529Z,101162.88
2023-03-20T04:50:07.192Z,101271.25
2023-03-20T04:52:33.592Z,101086.50
2023-03-20T04:55:00.169Z,101235.38
2023-03-20T04:57:27.124Z,101200.66
2023-03-20T04:59:53.657Z,101236.97
2023-03-20T05:02:20.456Z,101183.22
2023-03-20T05:04:47.151Z,101157.09
2023-03-20T05:07:13.516Z,101210.69
2023-03-20T05:09:40.248Z,101163.09
2023-03-20T05:12:07.040Z,101226.59
2023-03-20T05:14:33.448Z,101264.72
2023-03-20T05:16:59.846Z,101138.19
2023-03-20T05:19:26.322Z,101227.38
2023-03-20T05:21:52.813Z,101237.94
2023-03-20T05:24:19.354Z,101264.72
2023-03-20T05:26:45.828Z,101241.28
2023-03-20T05:29:12.277Z,101160.78
2023-03-20T05:31:39.154Z,101112.94
2023-03-20T05:34:05.729Z,101091.28
2023-03-20T05:36:32.241Z,101183.81
2023-03-20T05:38:58.949Z,101229.84
2023-03-20T05:41:46.297Z,101214.41
2023-03-20T05:44:12.771Z,101060.41
2023-03-20T05:46:39.170Z,101231.94
2023-03-20T05:49:05.567Z,101115.00
2023-03-20T05:51:31.927Z,101259.59
2023-03-20T05:53:58.400Z,101179.81
2023-03-20T05:56:24.865Z,101215.19
2023-03-20T05:58:52.035Z,101209.06
2023-03-20T06:01:21.377Z,101211.88
2023-03-20T06:03:48.816Z,101235.22
2023-03-20T06:06:16.550Z,101263.03
2023-03-20T06:08:43.124Z,101137.41
2023-03-20T06:11:10.371Z,101216.31
2023-03-20T06:13:36.731Z,101230.16
2023-03-20T06:16:03.406Z,101212.88
2023-03-20T06:18:29.826Z,101186.81
2023-03-20T06:20:57.705Z,101259.75
2023-03-20T06:23:24.809Z,101261.34
2023-03-20T06:25:51.231Z,101218.69
2023-03-20T06:28:17.621Z,101226.56
2023-03-20T06:30:44.499Z,101212.59
2023-03-20T06:33:10.936Z,101181.50
2023-03-20T06:35:37.551Z,101238.75
2023-03-20T06:38:04.147Z,101251.91
2023-03-20T06:40:30.541Z,101223.22
2023-03-20T06:42:56.982Z,101259.78
2023-03-20T06:45:23.395Z,101225.03
2023-03-20T06:47:49.740Z,101215.47
2023-03-20T06:50:16.568Z,101243.22
2023-03-20T06:52:43.330Z,101275.44
2023-03-20T06:55:09.880Z,101280.69
2023-03-20T06:57:36.234Z,101242.44
2023-03-20T07:00:05.507Z,101300.47
2023-03-20T07:02:32.381Z,101244.19
2023-03-20T07:04:59.104Z,101264.94
2023-03-20T07:07:25.694Z,101275.47
2023-03-20T07:09:52.222Z,101256.38
2023-03-20T07:12:21.371Z,101300.75
2023-03-20T07:14:47.752Z,101271.19
2023-03-20T07:17:14.083Z,101228.50
2023-03-20T07:19:41.352Z,101306.88
2023-03-20T07:22:15.294Z,101331.06
2023-03-20T07:24:41.679Z,101284.09
2023-03-20T07:27:08.006Z,101303.16
2023-03-20T07:29:34.355Z,101300.38
2023-03-20T07:32:02.420Z,101309.97
2023-03-20T07:34:28.761Z,101303.03
2023-03-20T07:36:55.333Z,101280.38
2023-03-20T07:39:22.200Z,101308.34
2023-03-20T07:41:48.581Z,101295.19
2023-03-20T07:44:15.163Z,101332.66
2023-03-20T07:46:41.571Z,101343.13
2023-03-20T07:49:08.028Z,101206.94
2023-03-20T07:51:34.504Z,101199.06
2023-03-20T07:54:00.982Z,101312.59
2023-03-20T07:56:27.381Z,101313.31
2023-03-20T07:58:54.669Z,101314.34
2023-03-20T08:01:21.326Z,101308.25
2023-03-20T08:03:47.853Z,101299.75
2023-03-20T08:06:14.195Z,101347.28
2023-03-20T08:08:41.895Z,101327.31
2023-03-20T08:11:08.306Z,101354.28
2023-03-20T08:13:34.680Z,101325.44
2023-03-20T08:16:01.232Z,101358.72
2023-03-20T08:18:27.559Z,101255.53
2023-03-20T08:20:53.887Z,101344.72
2023-03-20T08:23:20.994Z,101165.00
2023-03-20T08:25:52.074Z,101352.34
2023-03-20T08:28:18.807Z,101311.34
2023-03-20T08:30:45.242Z,101220.91
2023-03-20T08:33:12.086Z,101323.81
2023-03-20T08:35:38.620Z,101292.44
2023-03-20T08:38:05.093Z,101288.94
2023-03-20T08:40:31.766Z,101313.03
2023-03-20T08:42:59.377Z,101307.78
2023-03-20T08:45:26.190Z,101344.16
2023-03-20T08:47:53.333Z,101339.69
2023-03-20T08:50:19.968Z,101334.78
2023-03-20T08:52:46.921Z,101314.88
2023-03-20T08:55:15.020Z,101304.47
2023-03-20T08:57:41.601Z,101240.28
2023-03-20T09:00:10.373Z,101331.31
2023-03-20T09:02:36.892Z,101322.72
2023-03-20T09:05:03.646Z,101362.84
2023-03-20T09:07:30.037Z,101322.97
2023-03-20T09:09:56.541Z,101309.56
2023-03-20T09:12:22.963Z,101351.28
2023-03-20T09:14:49.379Z,101333.69
2023-03-20T09:17:15.896Z,101342.38
2023-03-20T09:19:44.577Z,101367.59
2023-03-20T09:22:13.892Z,101360.38
2023-03-20T09:24:40.814Z,101338.50
2023-03-20T09:27:07.201Z,101344.28
2023-03-20T09:29:33.542Z,101263.75
2023-03-20T09:31:59.914Z,101312.09
2023-03-20T09:34:26.331Z,101337.19
2023-03-20T09:36:52.942Z,101327.78
2023-03-20T09:39:19.290Z,101327.75
2023-03-20T09:41:57.249Z,101364.44
2023-03-20T09:44:29.884Z,101374.13
2023-03-20T09:47:18.500Z,101357.84
2023-03-20T09:50:23.713Z,101370.16
2023-03-20T09:53:36.778Z,101299.25
2023-03-20T09:56:04.094Z,101287.34
2023-03-20T09:58:34.160Z,101250.78
2023-03-20T10:01:02.662Z,101346.09
2023-03-20T10:03:38.960Z,101372.09
2023-03-20T10:06:12.061Z,101365.03
2023-03-20T10:08:39.310Z,101298.16
2023-03-20T10:11:27.299Z,101368.97
2023-03-20T10:14:42.016Z,101364.66
2023-03-20T10:17:14.301Z,101364.84
2023-03-20T10:19:50.923Z,101370.56
2023-03-20T10:22:35.891Z,101372.72
2023-03-20T10:25:17.657Z,101365.22
2023-03-20T10:27:49.511Z,101336.44
2023-03-20T10:30:53.486Z,101355.72
2023-03-20T10:33:52.672Z,101335.97
2023-03-20T10:36:47.869Z,101316.63
2023-03-20T10:39:50.378Z,101353.81
2023-03-20T10:42:22.789Z,101348.75
2023-03-20T10:44:55.497Z,101304.47
2023-03-20T10:47:26.673Z,101344.38
2023-03-20T10:49:58.218Z,101303.13
2023-03-20T10:52:32.228Z,101317.09
2023-03-20T10:55:19.400Z,101340.56
2023-03-20T10:57:52.730Z,101312.66
2023-03-20T11:00:25.858Z,101354.50
2023-03-20T11:02:52.353Z,101323.28
2023-03-20T11:05:39.492Z,101344.84
2023-03-20T11:08:08.906Z,101321.41
2023-03-20T11:10:37.890Z,101344.75
2023-03-20T11:13:26.533Z,101300.56
2023-03-20T11:15:54.190Z,101334.41
2023-03-20T11:18:23.284Z,101310.06
2023-03-20T11:20:52.889Z,101351.91
2023-03-20T11:23:25.583Z,101337.00
2023-03-20T11:25:57.395Z,101334.47
2023-03-20T11:28:40.607Z,101334.69
2023-03-20T11:31:17.880Z,101340.78
2023-03-20T11:33:46.963Z,101346.84
2023-03-20T11:36:29.944Z,101329.41
2023-03-20T11:39:14.567Z,101324.00
2023-03-20T11:41:50.082Z,101310.97
2023-03-20T11:44:37.011Z,101278.75
2023-03-20T11:47:22.528Z,101292.47
2023-03-20T11:49:56.075Z,101317.41
2023-03-20T11:52:25.904Z,101271.34
2023-03-20T11:54:56.114Z,101248.75
2023-03-20T11:57:37.243Z,101281.28
2023-03-20T12:00:26.022Z,101275.31
2023-03-20T12:02:52.601Z,101265.41
2023-03-20T12:05:43.870Z,101310.44
2023-03-20T12:08:20.105Z,101276.13
2023-03-20T12:10:55.495Z,101285.50
2023-03-20T12:13:26.210Z,101277.38
2023-03-20T12:15:59.414Z,101280.72
2023-03-20T12:18:40.902Z,101261.22
2023-03-20T12:21:13.353Z,101284.56
2023-03-20T12:24:25.785Z,101280.75
2023-03-20T12:27:07.723Z,101246.50
2023-03-20T13:15:01.284Z,101231.59
2023-03-20T13:17:44.728Z,101217.31
2023-03-20T13:20:28.929Z,101212.16
2023-03-20T13:23:21.978Z,101184.91
2023-03-20T13:25:58.584Z,101174.25
2023-03-20T13:29:01.930Z,101234.56
2023-03-20T13:31:36.803Z,101234.94
2023-03-20T13:34:03.253Z,101237.31
2023-03-20T13:36:54.008Z,101229.41
2023-03-20T13:39:42.988Z,101230.03
2023-03-20T13:42:14.847Z,101204.88
2023-03-20T13:44:43.241Z,101193.72
2023-03-20T13:47:18.123Z,101200.53
2023-03-20T13:50:01.612Z,101229.19
2023-03-20T13:52:42.706Z,101183.78
2023-03-20T13:55:35.832Z,101184.13
2023-03-20T13:58:27.940Z,101211.53
2023-03-20T14:01:06.675Z,101218.22
2023-03-20T14:03:37.260Z,101220.53
2023-03-20T14:06:31.750Z,101200.75
2023-03-20T14:08:59.450Z,101200.56
2023-03-20T14:11:35.045Z,101204.28
2023-03-20T14:14:19.631Z,101193.19
2023-03-20T14:16:45.881Z,101200.38
2023-03-20T14:19:21.087Z,101157.72
2023-03-20T14:21:49.114Z,101201.00
2023-03-20T14:24:19.338Z,101183.53
2023-03-20T14:26:52.730Z,101195.50
2023-03-20T14:29:46.836Z,101194.22
2023-03-20T14:32:13.144Z,101197.13
2023-03-20T14:35:18.828Z,101202.41
2023-03-20T14:38:20.827Z,101170.22
2023-03-20T14:40:59.592Z,101138.72
2023-03-20T14:43:58.556Z,101197.00
2023-03-20T14:46:46.865Z,101201.88
2023-03-20T14:49:22.717Z,101187.34
2023-03-20T14:51:53.085Z,101193.31
2023-03-20T14:54:22.421Z,101193.91
2023-03-20T14:56:50.751Z,101179.47
2023-03-20T14:59:19.659Z,101188.88
2023-03-20T15:01:47.714Z,101184.59
2023-03-20T15:04:26.340Z,101173.38
2023-03-20T15:06:58.793Z,101175.53
2023-03-20T15:09:27.441Z,101173.63
2023-03-20T15:11:59.576Z,101132.88
2023-03-20T15:14:29.184Z,101136.50
2023-03-20T15:17:01.153Z,101143.78
2023-03-20T15:19:28.327Z,101121.78
2023-03-20T15:21:55.830Z,101146.78
2023-03-20T15:24:23.703Z,101146.50
2023-03-20T15:26:55.693Z,101107.69
2023-03-20T15:29:23.180Z,101032.63
2023-03-20T15:32:15.610Z,101112.16
2023-03-20T15:34:43.013Z,101024.19
2023-03-20T15:37:19.873Z,100999.38
2023-03-20T15:39:53.780Z,101142.78
2023-03-20T15:42:24.098Z,101058.88
2023-03-20T15:44:53.238Z,101125.47
2023-03-20T15:47:24.682Z,101132.38
2023-03-20T15:49:56.800Z,101116.38
2023-03-20T15:52:32.302Z,101133.78
2023-03-20T15:55:03.100Z,101087.38
2023-03-20T15:57:42.062Z,101127.38
2023-03-20T16:00:24.147Z,101122.28
2023-03-20T16:02:50.801Z,101031.47
2023-03-20T16:05:18.665Z,101089.47
2023-03-20T16:07:45.093Z,101109.09
2023-03-20T16:10:17.517Z,101126.44
2023-03-20T16:12:49.481Z,101127.41
2023-03-20T16:15:20.182Z,101120.09
2023-03-20T16:17:50.859Z,101010.13
2023-03-20T16:20:18.151Z,101030.94
2023-03-20T16:22:45.871Z,101110.94
2023-03-20T16:25:15.996Z,101111.84
2023-03-20T16:27:45.687Z,101087.47
2023-03-20T16:30:19.436Z,101115.03
2023-03-20T16:32:51.129Z,101072.72
2023-03-20T16:35:25.792Z,101116.13
2023-03-20T16:37:56.819Z,101119.16
2023-03-20T16:40:35.962Z,101122.53
2023-03-20T16:43:28.324Z,101098.34
2023-03-20T16:45:57.161Z,101119.53
2023-03-20T16:48:23.496Z,101128.41
2023-03-20T16:50:56.872Z,101084.38
2023-03-20T16:53:24.846Z,101115.50
2023-03-20T16:55:55.812Z,101129.09
2023-03-20T16:58:27.170Z,101008.31
2023-03-20T17:01:06.203Z,101104.16
2023-03-20T17:03:45.878Z,101094.00
2023-03-20T17:06:21.585Z,101129.31
2023-03-20T17:08:52.713Z,101122.31
2023-03-20T17:11:29.138Z,101086.63
2023-03-20T17:13:55.554Z,101097.94
2023-03-20T17:16:22.622Z,101071.94
2023-03-20T17:18:59.642Z,101117.53
2023-03-20T17:21:26.090Z,101122.78
2023-03-20T17:23:52.901Z,101106.47
2023-03-20T17:26:19.273Z,101098.84
2023-03-20T17:28:46.011Z,101089.97
2023-03-20T17:31:14.091Z,101100.28
2023-03-20T17:33:41.252Z,101093.22
2023-03-20T17:36:29.843Z,101079.34
2023-03-20T17:38:57.643Z,101124.28
2023-03-20T17:41:25.199Z,101124.28
2023-03-20T17:43:52.147Z,101099.09
2023-03-20T17:46:27.002Z,101117.28
2023-03-20T17:48:59.339Z,101072.44
2023-03-20T17:51:25.886Z,101094.94
2023-03-20T17:53:55.410Z,101121.09
2023-03-20T17:56:22.424Z,101091.81
2023-03-20T17:58:48.949Z,101010.31
2023-03-20T18:01:15.469Z,100978.72
2023-03-20T18:03:42.366Z,101128.47
2023-03-20T18:06:19.940Z,101003.13
2023-03-20T18:08:46.362Z,101020.94
2023-03-20T18:11:12.782Z,101022.78
2023-03-20T18:13:39.139Z,101119.91
2023-03-20T18:16:05.807Z,101101.69
2023-03-20T18:18:32.361Z,101035.19
2023-03-20T18:20:59.382Z,101127.53
2023-03-20T18:23:25.754Z,101117.97
2023-03-20T18:25:52.206Z,101039.56
2023-03-20T18:28:22.734Z,101117.88
2023-03-20T18:30:50.614Z,101117.94
2023-03-20T18:33:17.244Z,101056.63
2023-03-20T18:35:43.886Z,101065.22
2023-03-20T18:38:13.719Z,101121.50
2023-03-20T18:40:42.530Z,101077.25
2023-03-20T18:43:10.664Z,101097.28
2023-03-20T18:45:40.513Z,101041.78
2023-03-20T18:48:11.491Z,101013.28
2023-03-20T18:50:42.212Z,100988.25
2023-03-20T18:53:10.781Z,100925.47
2023-03-20T18:55:38.295Z,101118.94
2023-03-20T18:58:06.408Z,101005.66
2023-03-20T19:00:42.653Z,101049.63
2023-03-20T19:03:11.056Z,101057.63
2023-03-20T19:05:37.693Z,101135.50
2023-03-20T19:08:04.920Z,101114.53
2023-03-20T19:10:40.532Z,101090.34
2023-03-20T19:13:10.971Z,101094.66
2023-03-20T19:15:38.563Z,101007.44
2023-03-20T19:18:07.229Z,101024.66
2023-03-20T19:20:42.106Z,101019.47
2023-03-20T19:23:10.818Z,101026.22
2023-03-20T19:25:38.262Z,101053.94
2023-03-20T19:28:05.811Z,101058.25
2023-03-20T19:30:35.870Z,101091.84
2023-03-20T19:33:03.338Z,101105.56
2023-03-20T19:35:58.454Z,101078.13
2023-03-20T19:38:21.779Z,101096.94
2023-03-20T19:40:52.867Z,101035.75
2023-03-20T19:43:23.164Z,101086.69
2023-03-20T19:45:57.990Z,100979.44
2023-03-20T19:48:43.231Z,101089.97
2023-03-20T19:51:18.976Z,101101.13
2023-03-20T19:53:46.406Z,101011.31
2023-03-20T19:56:14.466Z,101039.94
2023-03-20T19:58:44.369Z,101073.69
2023-03-20T20:01:17.058Z,100997.63
2023-03-20T20:03:45.026Z,101063.91
2023-03-20T20:06:12.358Z,100977.72
2023-03-20T20:08:47.983Z,101074.41
2023-03-20T20:11:15.951Z,101001.81
2023-03-20T20:14:03.559Z,101093.41
2023-03-20T20:16:31.643Z,101084.66
2023-03-20T20:18:58.073Z,101096.88
2023-03-20T20:24:50.563Z,101047.44
2023-03-20T20:27:18.948Z,101074.47
2023-03-20T20:29:50.736Z,100885.41
2023-03-20T20:32:21.962Z,101060.44
2023-03-20T20:36:27.877Z,101093.22
2023-03-20T20:54:14.119Z,101092.34
2023-03-20T20:56:40.897Z,101089.84
2023-03-20T20:59:08.960Z,100890.53
2023-03-20T21:01:39.661Z,100969.91
2023-03-20T21:04:08.547Z,101070.16
2023-03-20T21:07:06.125Z,100869.59
2023-03-20T21:09:26.524Z,100861.72
2023-03-20T21:11:53.004Z,100877.50
2023-03-20T21:14:19.708Z,101097.66
2023-03-20T21:16:46.189Z,100933.47
2023-03-20T21:19:24.562Z,100920.63
2023-03-20T21:21:51.216Z,100998.22
2023-03-20T21:24:31.471Z,101052.69
2023-03-20T21:27:00.360Z,100872.06
2023-03-20T21:29:27.265Z,100955.09
2023-03-20T21:31:53.880Z,100860.22
2023-03-20T21:34:20.657Z,100960.56
2023-03-20T21:36:49.233Z,100881.00
2023-03-20T21:39:17.208Z,101003.41
2023-03-20T21:41:44.145Z,100855.94
2023-03-20T21:44:17.106Z,100965.69
2023-03-20T21:47:29.445Z,100924.25
2023-03-20T21:53:06.756Z,100884.56
2023-03-20T21:56:16.950Z,101015.50
2023-03-20T21:58:44.566Z,101017.34
2023-03-20T22:04:19.114Z,100869.78
2023-03-20T22:12:59.395Z,100988.38
2023-03-20T22:15:38.812Z,100916.53
2023-03-20T22:17:59.793Z,100968.06
2023-03-20T22:29:28.643Z,100865.56
2023-03-20T22:45:42.454Z,101042.19
2023-03-20T22:48:14.660Z,100893.13
2023-03-20T22:50:44.347Z,100861.38
2023-03-20T22:53:11.133Z,100903.44
2023-03-20T22:55:41.641Z,100983.66
2023-03-20T22:58:10.208Z,101051.00
2023-03-20T23:00:37.375Z,100942.09
2023-03-20T23:03:42.200Z,101066.34
2023-03-20T23:06:21.097Z,101058.53
2023-03-20T23:08:54.559Z,101061.09
2023-03-20T23:11:24.618Z,100886.25
2023-03-20T23:13:56.469Z,100975.59
2023-03-20T23:16:23.174Z,100861.88
2023-03-20T23:19:07.602Z,101045.66
2023-03-20T23:21:34.129Z,100872.47
2023-03-20T23:24:00.583Z,100906.66
2023-03-20T23:26:30.160Z,100981.00
2023-03-20T23:28:57.720Z,100969.38
2023-03-20T23:31:26.615Z,101037.41
2023-03-20T23:33:59.097Z,100966.03
2023-03-20T23:36:36.404Z,100965.44
2023-03-20T23:39:06.153Z,100896.16
2023-03-20T23:42:04.697Z,101013.25
2023-03-20T23:44:22.295Z,100940.19
2023-03-20T23:46:49.145Z,100869.34
2023-03-20T23:49:17.885Z,100938.50
2023-03-20T23:51:46.613Z,100924.41
2023-03-20T23:54:14.691Z,101044.25
2023-03-20T23:56:45.202Z,100911.59
2023-03-20T23:59:21.952Z,101018.56
